Time;durP1;ratioP1;P1;durP2;ratioP2;P2;SDS_P1;SDS_P2;PMS_P1;PMS_P2;Temp;Humidity;BMP_temperature;BMP_pressure;BME280_temperature;BME280_humidity;BME280_pressure;Samples;Min_cycle;Max_cycle;Signal;HPM_P1;HPM_P2
2023/04/27 00:05:50;;;;;;;6.00;2.00;;;4.30;1.00;;;;;;20823908;28;20044;-42
2023/04/27 00:16:11;;;;;;;5.03;1.48;;;4.20;1.00;;;;;;20785857;28;20044;-42
2023/04/27 00:26:32;;;;;;;3.97;1.70;;;4.20;1.00;;;;;;20765915;28;20562;-42
2023/04/27 00:36:33;;;;;;;4.25;1.67;;;4.10;1.00;;;;;;20799490;28;20052;-42
2023/04/27 00:46:35;;;;;;;3.13;1.33;;;4.00;1.00;;;;;;20772861;28;20041;-42
2023/04/27 00:56:37;;;;;;;1.70;0.88;;;3.90;1.00;;;;;;20804896;28;20484;-42
2023/04/27 01:06:38;;;;;;;3.80;1.02;;;3.80;1.00;;;;;;20779052;28;20726;-43
2023/04/27 01:16:45;;;;;;;3.53;1.27;;;3.70;1.00;;;;;;20748335;28;20040;-43
2023/04/27 01:27:06;;;;;;;2.78;0.98;;;3.60;1.00;;;;;;20779350;28;20036;-42
2023/04/27 01:37:27;;;;;;;3.30;1.65;;;3.60;1.00;;;;;;20770080;28;20118;-42
2023/04/27 01:47:31;;;;;;;3.70;1.85;;;3.60;1.00;;;;;;20800718;28;20134;-43
2023/04/27 01:57:32;;;;;;;3.65;1.50;;;3.50;1.00;;;;;;20791525;28;20504;-42
2023/04/27 02:07:33;;;;;;;3.03;1.58;;;3.40;1.00;;;;;;20808349;28;20107;-43
2023/04/27 02:17:54;;;;;;;6.72;3.58;;;3.40;1.00;;;;;;20740734;28;20048;-42
2023/04/27 02:27:55;;;;;;;3.72;1.75;;;3.40;1.00;;;;;;20793807;28;20205;-43
2023/04/27 02:37:56;;;;;;;4.60;2.08;;;3.30;1.00;;;;;;20793060;28;20235;-42
2023/04/27 02:47:57;;;;;;;5.35;1.88;;;3.30;1.00;;;;;;20790999;28;20078;-42
2023/04/27 02:57:58;;;;;;;5.97;1.67;;;3.40;1.00;;;;;;20792790;28;20049;-42
2023/04/27 03:08:00;;;;;;;7.18;2.45;;;3.40;1.00;;;;;;20770490;28;20037;-43
2023/04/27 03:18:21;;;;;;;3.80;1.80;;;3.30;1.00;;;;;;20811287;28;20159;-43
2023/04/27 03:28:42;;;;;;;3.88;1.52;;;3.20;1.00;;;;;;20791201;28;20450;-42
2023/04/27 03:39:00;;;;;;;2.90;1.35;;;3.20;1.00;;;;;;20803050;28;20476;-43
2023/04/27 03:49:02;;;;;;;5.72;1.75;;;3.10;1.00;;;;;;20802212;28;20044;-42
2023/04/27 03:59:04;;;;;;;3.45;1.13;;;3.00;1.00;;;;;;20737912;28;20105;-43
2023/04/27 04:09:11;;;;;;;;;;;3.00;1.00;;;;;;20820309;28;20495;-43
2023/04/27 04:19:33;;;;;;;5.25;2.63;;;2.90;1.00;;;;;;20828996;28;20086;-43
2023/04/27 04:29:54;;;;;;;6.40;1.52;;;2.80;1.00;;;;;;20793320;28;20128;-42
2023/04/27 04:40:15;;;;;;;4.80;2.25;;;2.70;1.00;;;;;;20718006;28;20033;-43
2023/04/27 04:50:38;;;;;;;4.68;1.45;;;2.80;1.00;;;;;;20791495;28;20083;-43
2023/04/27 05:00:49;;;;;;;2.90;1.67;;;3.00;1.00;;;;;;20781443;28;20037;-43
2023/04/27 05:10:56;;;;;;;2.90;1.13;;;3.10;1.00;;;;;;20833765;28;20397;-42
2023/04/27 05:21:19;;;;;;;4.50;2.05;;;3.30;1.20;;;;;;20836466;28;20044;-43
2023/04/27 05:31:23;;;;;;;3.45;1.80;;;3.60;1.00;;;;;;20863255;28;20025;-42
2023/04/27 05:41:44;;;;;;;3.22;1.90;;;3.80;1.00;;;;;;20851243;28;20524;-42
2023/04/27 05:52:05;;;;;;;3.25;1.50;;;4.30;1.00;;;;;;20796562;28;20132;-42
2023/04/27 06:02:26;;;;;;;2.83;1.00;;;5.20;1.00;;;;;;20749957;28;20131;-42
2023/04/27 06:12:47;;;;;;;3.22;1.50;;;5.70;1.00;;;;;;20794342;28;20090;-42
2023/04/27 06:23:08;;;;;;;6.55;1.80;;;6.30;1.00;;;;;;20730039;28;20299;-43
2023/04/27 06:33:29;;;;;;;3.17;1.38;;;6.30;1.00;;;;;;20756294;28;21212;-42
2023/04/27 06:43:50;;;;;;;2.42;0.93;;;6.50;1.00;;;;;;20767405;28;20143;-42
2023/04/27 06:54:11;;;;;;;6.95;1.30;;;6.70;1.00;;;;;;20767066;28;20789;-43
2023/04/27 07:04:32;;;;;;;4.40;1.40;;;7.00;1.00;;;;;;20732486;28;20112;-43
2023/04/27 07:14:53;;;;;;;3.15;1.27;;;7.50;1.00;;;;;;20776999;28;20397;-42
2023/04/27 07:25:15;;;;;;;3.38;1.25;;;7.60;1.00;;;;;;20723947;28;20168;-42
2023/04/27 07:35:36;;;;;;;2.47;1.00;;;7.70;1.00;;;;;;20761498;28;20080;-42
2023/04/27 07:45:57;;;;;;;3.35;1.30;;;7.80;1.00;;;;;;20762926;28;20073;-42
2023/04/27 07:56:18;;;;;;;5.20;1.00;;;8.10;1.00;;;;;;20782082;28;20498;-43
2023/04/27 08:06:39;;;;;;;3.22;1.50;;;8.30;1.00;;;;;;20773408;28;20076;-43
2023/04/27 08:17:00;;;;;;;3.55;1.55;;;8.70;1.00;;;;;;20784817;28;20119;-43
2023/04/27 08:27:21;;;;;;;3.55;1.58;;;8.90;1.00;;;;;;20791282;28;20037;-43
2023/04/27 08:37:43;;;;;;;3.28;1.08;;;9.20;1.00;;;;;;20795664;28;20095;-42
2023/04/27 08:48:04;;;;;;;5.65;1.02;;;9.60;1.00;;;;;;20777083;28;20655;-43
2023/04/27 08:58:36;;;;;;;2.60;1.50;;;9.80;1.00;;;;;;20763715;28;20095;-43
2023/04/27 09:08:57;;;;;;;2.88;1.35;;;10.00;1.00;;;;;;20782413;28;20244;-43
2023/04/27 09:19:25;;;;;;;2.35;1.02;;;10.50;1.00;;;;;;20755894;28;20132;-43
2023/04/27 09:29:46;;;;;;;3.70;1.30;;;11.00;1.00;;;;;;20757683;28;20816;-43
2023/04/27 09:40:08;;;;;;;2.97;1.40;;;10.80;1.00;;;;;;20767503;28;20128;-43
2023/04/27 09:50:33;;;;;;;2.67;1.27;;;10.70;1.00;;;;;;20759568;28;20124;-43
2023/04/27 10:01:13;;;;;;;2.95;1.33;;;10.90;1.00;;;;;;20773344;28;21019;-43
2023/04/27 10:11:43;;;;;;;2.53;1.30;;;11.50;1.00;;;;;;20769499;28;20195;-43
2023/04/27 10:22:06;;;;;;;3.00;1.23;;;11.80;1.00;;;;;;20769237;28;20502;-43
2023/04/27 10:32:28;;;;;;;4.10;2.10;;;11.50;1.00;;;;;;20785257;28;20083;-43
2023/04/27 10:42:49;;;;;;;3.72;0.90;;;12.00;1.00;;;;;;20802024;28;20099;-43
2023/04/27 10:53:11;;;;;;;2.88;1.25;;;12.40;1.00;;;;;;20801320;28;20091;-43
2023/04/27 11:03:32;;;;;;;2.95;1.63;;;13.00;1.00;;;;;;20789191;28;20049;-42
2023/04/27 11:13:54;;;;;;;7.43;1.20;;;13.70;1.00;;;;;;20796878;28;20102;-42
2023/04/27 11:24:16;;;;;;;2.42;1.15;;;14.10;1.00;;;;;;20788081;28;20095;-41
2023/04/27 11:34:37;;;;;;;4.43;1.73;;;14.10;1.00;;;;;;20762988;28;20105;-41
2023/04/27 11:45:05;;;;;;;6.45;1.95;;;14.10;1.00;;;;;;20782151;28;20134;-41
2023/04/27 11:55:25;;;;;;;4.03;1.55;;;14.60;1.00;;;;;;20767126;28;20831;-41
2023/04/27 12:05:48;;;;;;;3.78;1.20;;;14.80;1.00;;;;;;20717545;28;20038;-41
2023/04/27 12:15:50;;;;;;;2.35;1.30;;;15.00;1.00;;;;;;20711946;28;20029;-41
2023/04/27 12:25:51;;;;;;;2.67;1.40;;;15.80;1.00;;;;;;20716250;28;20041;-41
2023/04/27 12:35:52;;;;;;;4.18;1.73;;;15.90;1.00;;;;;;20714912;28;20532;-41
2023/04/27 12:45:53;;;;;;;3.90;2.15;;;15.50;1.00;;;;;;20694031;28;20050;-41
2023/04/27 12:55:54;;;;;;;4.25;1.77;;;15.90;1.00;;;;;;20723004;28;20048;-41
2023/04/27 13:05:55;;;;;;;4.03;1.65;;;16.00;1.00;;;;;;20715407;28;20562;-41
2023/04/27 13:15:57;;;;;;;4.13;1.42;;;16.20;1.00;;;;;;20715055;28;20052;-40
2023/04/27 13:25:58;;;;;;;6.70;1.83;;;15.70;1.00;;;;;;20717496;28;20602;-41
2023/04/27 13:36:01;;;;;;;3.25;1.70;;;15.80;1.00;;;;;;20705363;28;20750;-41
2023/04/27 13:46:02;;;;;;;5.13;1.90;;;16.10;1.00;;;;;;20699330;28;20045;-41
2023/04/27 13:56:03;;;;;;;6.68;2.33;;;16.50;1.00;;;;;;20709395;28;20033;-41
2023/04/27 14:06:06;;;;;;;4.43;1.67;;;15.60;1.00;;;;;;20716835;28;20465;-41
2023/04/27 14:16:07;;;;;;;3.97;1.67;;;15.60;1.00;;;;;;20720569;28;20045;-40
2023/04/27 14:26:09;;;;;;;4.90;1.90;;;15.70;1.00;;;;;;20705163;28;20049;-40
2023/04/27 14:36:10;;;;;;;4.10;1.80;;;14.90;1.00;;;;;;20712986;28;20041;-41
2023/04/27 14:46:11;;;;;;;4.18;1.98;;;15.10;1.00;;;;;;20733253;28;20037;-41
2023/04/27 14:56:12;;;;;;;3.78;1.50;;;15.20;1.00;;;;;;20733399;28;20512;-41
2023/04/27 15:06:13;;;;;;;3.83;1.70;;;15.10;1.00;;;;;;20715703;28;20370;-41
2023/04/27 15:16:14;;;;;;;5.78;1.73;;;15.20;1.00;;;;;;20747308;28;20049;-41
2023/04/27 15:26:15;;;;;;;3.53;2.00;;;15.00;1.00;;;;;;20746132;28;20056;-40
2023/04/27 15:36:16;;;;;;;3.08;1.50;;;14.80;1.00;;;;;;20746016;28;20062;-41
2023/04/27 15:46:18;;;;;;;3.95;1.90;;;14.70;1.00;;;;;;20736251;28;20506;-40
2023/04/27 15:56:20;;;;;;;3.15;1.67;;;14.30;1.00;;;;;;20744908;28;20058;-41
2023/04/27 16:06:21;;;;;;;2.50;1.30;;;14.40;1.00;;;;;;20740185;28;20494;-41
2023/04/27 16:16:22;;;;;;;3.80;2.15;;;14.30;1.00;;;;;;20723714;28;20041;-41
2023/04/27 16:26:23;;;;;;;5.88;1.92;;;14.10;1.00;;;;;;20729093;28;20048;-41
2023/04/27 16:36:24;;;;;;;6.47;2.47;;;13.70;1.00;;;;;;20737819;28;20053;-41
2023/04/27 16:46:25;;;;;;;2.83;1.23;;;13.60;1.00;;;;;;20727460;28;20504;-41
2023/04/27 16:56:27;;;;;;;5.00;1.23;;;13.50;1.00;;;;;;20720166;28;20041;-41
2023/04/27 17:06:28;;;;;;;2.25;1.20;;;13.60;1.00;;;;;;20690702;28;20038;-41
2023/04/27 17:16:31;;;;;;;3.15;1.25;;;13.70;1.00;;;;;;20715485;28;20513;-41
2023/04/27 17:26:32;;;;;;;2.85;1.30;;;13.60;1.00;;;;;;20715045;28;20072;-41
2023/04/27 17:36:33;;;;;;;2.38;1.10;;;13.50;1.00;;;;;;20718253;28;20061;-41
2023/04/27 17:46:36;;;;;;;3.20;1.63;;;13.30;1.00;;;;;;20721733;28;20402;-41
2023/04/27 17:56:38;;;;;;;3.97;1.10;;;13.10;1.00;;;;;;20715623;28;20053;-41
2023/04/27 18:06:39;;;;;;;2.60;1.25;;;13.00;1.00;;;;;;20707739;28;20041;-41
2023/04/27 18:16:40;;;;;;;3.40;1.63;;;12.90;1.00;;;;;;20711338;28;20532;-41
2023/04/27 18:26:41;;;;;;;2.63;1.17;;;12.70;1.00;;;;;;20706076;28;20042;-41
2023/04/27 18:36:42;;;;;;;9.20;1.25;;;12.70;1.00;;;;;;20703048;28;20034;-41
2023/04/27 18:46:44;;;;;;;3.47;1.58;;;12.70;1.00;;;;;;20697186;28;20046;-41
2023/04/27 18:56:49;;;;;;;3.58;1.50;;;12.60;1.00;;;;;;20705293;28;20825;-41
2023/04/27 19:06:51;;;;;;;2.97;1.38;;;12.40;1.00;;;;;;20708440;28;20175;-40
2023/04/27 19:16:52;;;;;;;3.95;1.88;;;12.30;1.00;;;;;;20709467;28;20076;-41
2023/04/27 19:26:53;;;;;;;4.60;1.27;;;12.30;1.00;;;;;;20705483;28;20042;-41
2023/04/27 19:36:55;;;;;;;2.42;1.42;;;12.10;1.00;;;;;;20708045;28;20521;-40
2023/04/27 19:46:56;;;;;;;4.22;2.15;;;12.00;1.00;;;;;;20702053;28;20049;-41
2023/04/27 19:56:57;;;;;;;4.63;2.00;;;11.90;1.00;;;;;;20710510;28;20046;-41
2023/04/27 20:06:58;;;;;;;5.47;2.45;;;11.80;1.00;;;;;;20718837;28;20041;-41
2023/04/27 20:16:59;;;;;;;4.35;1.48;;;11.70;1.00;;;;;;20708863;28;20050;-40
2023/04/27 20:27:03;;;;;;;8.90;2.00;;;11.70;1.00;;;;;;20714236;28;20489;-41
2023/04/27 20:37:04;;;;;;;3.28;1.95;;;11.70;1.00;;;;;;20719003;28;20052;-41
2023/04/27 20:47:05;;;;;;;3.80;1.83;;;11.40;1.00;;;;;;20716338;28;20512;-40
2023/04/27 20:57:12;;;;;;;11.70;1.63;;;11.40;1.00;;;;;;20718006;28;20042;-41
2023/04/27 21:07:13;;;;;;;4.87;1.70;;;11.30;1.00;;;;;;20712845;28;20945;-41
2023/04/27 21:17:14;;;;;;;5.57;2.33;;;11.40;1.00;;;;;;20709289;28;20471;-41
2023/04/27 21:27:15;;;;;;;3.70;2.15;;;11.30;1.00;;;;;;20710327;28;20063;-41
2023/04/27 21:37:16;;;;;;;8.40;2.03;;;11.30;1.00;;;;;;20709367;28;20064;-41
2023/04/27 21:47:17;;;;;;;5.68;1.42;;;11.20;1.00;;;;;;20708996;28;21296;-41
2023/04/27 21:57:18;;;;;;;4.72;1.80;;;11.20;1.00;;;;;;20715560;28;20370;-41
2023/04/27 22:07:20;;;;;;;4.82;1.90;;;11.20;1.00;;;;;;20712540;28;20038;-41
2023/04/27 22:17:21;;;;;;;3.70;1.58;;;11.10;1.00;;;;;;20709432;28;22072;-41
2023/04/27 22:27:22;;;;;;;3.17;1.60;;;11.10;1.00;;;;;;20706479;28;20393;-41
2023/04/27 22:37:24;;;;;;;4.15;2.03;;;11.00;1.00;;;;;;20710868;28;20073;-42
2023/04/27 22:47:25;;;;;;;3.50;1.45;;;10.90;1.00;;;;;;20708691;28;20044;-41
2023/04/27 22:57:27;;;;;;;4.18;2.10;;;10.90;1.00;;;;;;20702912;28;20046;-42
2023/04/27 23:07:29;;;;;;;3.90;2.10;;;10.70;1.00;;;;;;20706798;28;20034;-42
2023/04/27 23:17:30;;;;;;;5.85;1.90;;;10.70;1.00;;;;;;20698091;28;20110;-42
2023/04/27 23:27:31;;;;;;;5.40;1.92;;;10.60;1.00;;;;;;20698944;28;20052;-42
2023/04/27 23:37:32;;;;;;;4.63;1.88;;;10.70;1.00;;;;;;20696855;28;20044;-42
2023/04/27 23:47:33;;;;;;;3.88;1.70;;;10.60;1.00;;;;;;20712908;28;20058;-42
2023/04/27 23:57:34;;;;;;;5.90;2.20;;;10.50;1.00;;;;;;20720616;28;20049;-42
